sensor_id;sensor_type;location;lat;lon;timestamp;pressure;altitude;pressure_sealevel;temperature;humidity
73341;BME280;61578;52.002;5.468;2023-03-03T00:00:12;102446.06;;;3.81;78.94
73341;BME280;61578;52.002;5.468;2023-03-03T00:00:43;102439.13;;;3.75;79.26
73341;BME280;61578;52.002;5.468;2023-03-03T00:01:15;102445.16;;;3.85;79.27
73341;BME280;61578;52.002;5.468;2023-03-03T00:01:45;102423.41;;;3.72;78.88
73341;BME280;61578;52.002;5.468;2023-03-03T00:02:16;102444.31;;;3.81;79.04
73341;BME280;61578;52.002;5.468;2023-03-03T00:02:47;102446.03;;;3.85;78.82
73341;BME280;61578;52.002;5.468;2023-03-03T00:03:21;102444.28;;;3.84;79.31
73341;BME280;61578;52.002;5.468;2023-03-03T00:03:53;102440.72;;;3.88;79.34
73341;BME280;61578;52.002;5.468;2023-03-03T00:04:24;102451.25;;;3.87;78.98
73341;BME280;61578;52.002;5.468;2023-03-03T00:04:55;102446.03;;;3.85;79.25
73341;BME280;61578;52.002;5.468;2023-03-03T00:05:25;102446.91;;;3.86;79.51
73341;BME280;61578;52.002;5.468;2023-03-03T00:05:57;102449.56;;;3.84;79.57
73341;BME280;61578;52.002;5.468;2023-03-03T00:06:28;102447.78;;;3.86;79.51
73341;BME280;61578;52.002;5.468;2023-03-03T00:06:59;102448.63;;;3.87;79.37
73341;BME280;61578;52.002;5.468;2023-03-03T00:07:30;102449.56;;;3.84;79.32
73341;BME280;61578;52.002;5.468;2023-03-03T00:08:02;102445.16;;;3.86;79.06
73341;BME280;61578;52.002;5.468;2023-03-03T00:08:33;102444.28;;;3.84;79.37
73341;BME280;61578;52.002;5.468;2023-03-03T00:09:04;102445.16;;;3.86;79.45
73341;BME280;61578;52.002;5.468;2023-03-03T00:09:35;102441.59;;;3.89;79.30
73341;BME280;61578;52.002;5.468;2023-03-03T00:10:06;102442.53;;;3.86;79.15
73341;BME280;61578;52.002;5.468;2023-03-03T00:10:37;102446.84;;;3.89;79.11
73341;BME280;61578;52.002;5.468;2023-03-03T00:11:10;102444.22;;;3.90;79.15
73341;BME280;61578;52.002;5.468;2023-03-03T00:11:40;102444.22;;;3.89;79.24
73341;BME280;61578;52.002;5.468;2023-03-03T00:12:23;102448.59;;;3.90;79.21
73341;BME280;61578;52.002;5.468;2023-03-03T00:12:58;102445.97;;;3.90;79.07
73341;BME280;61578;52.002;5.468;2023-03-03T00:13:32;102440.72;;;3.90;79.17
73341;BME280;61578;52.002;5.468;2023-03-03T00:14:21;102444.22;;;3.90;78.69
73341;BME280;61578;52.002;5.468;2023-03-03T00:14:57;102452.13;;;3.89;79.15
73341;BME280;61578;52.002;5.468;2023-03-03T00:15:29;102444.25;;;3.87;78.91
73341;BME280;61578;52.002;5.468;2023-03-03T00:16:23;102452.97;;;3.91;78.77
73341;BME280;61578;52.002;5.468;2023-03-03T00:17:00;102443.44;;;3.81;79.30
73341;BME280;61578;52.002;5.468;2023-03-03T00:17:49;102447.78;;;3.86;79.09
73341;BME280;61578;52.002;5.468;2023-03-03T00:18:25;102449.47;;;3.90;79.10
73341;BME280;61578;52.002;5.468;2023-03-03T00:19:00;102459.09;;;3.91;79.32
73341;BME280;61578;52.002;5.468;2023-03-03T00:19:37;102459.13;;;3.88;79.40
73341;BME280;61578;52.002;5.468;2023-03-03T00:21:56;102450.34;;;3.91;78.96
73341;BME280;61578;52.002;5.468;2023-03-03T00:22:35;102453.84;;;3.93;79.12
73341;BME280;61578;52.002;5.468;2023-03-03T00:23:48;102458.22;;;3.92;79.13
73341;BME280;61578;52.002;5.468;2023-03-03T00:24:43;102453.94;;;3.84;78.76
73341;BME280;61578;52.002;5.468;2023-03-03T00:26:03;102453.84;;;3.90;78.79
73341;BME280;61578;52.002;5.468;2023-03-03T00:26:53;102464.38;;;3.90;78.83
73341;BME280;61578;52.002;5.468;2023-03-03T00:27:29;102470.47;;;3.93;78.54
73341;BME280;61578;52.002;5.468;2023-03-03T00:28:28;102461.75;;;3.90;78.44
73341;BME280;61578;52.002;5.468;2023-03-03T00:29:29;102456.56;;;3.84;78.48
73341;BME280;61578;52.002;5.468;2023-03-03T00:30:23;102456.59;;;3.81;78.99
73341;BME280;61578;52.002;5.468;2023-03-03T00:30:59;102459.19;;;3.84;78.70
73341;BME280;61578;52.002;5.468;2023-03-03T00:31:34;102455.72;;;3.80;78.65
73341;BME280;61578;52.002;5.468;2023-03-03T00:32:54;102467.06;;;3.85;79.02
73341;BME280;61578;52.002;5.468;2023-03-03T00:33:30;102464.38;;;3.87;78.85
73341;BME280;61578;52.002;5.468;2023-03-03T00:34:24;102464.38;;;3.90;78.86
73341;BME280;61578;52.002;5.468;2023-03-03T00:35:18;102460.00;;;3.89;78.71
73341;BME280;61578;52.002;5.468;2023-03-03T00:36:51;102464.38;;;3.90;78.16
73341;BME280;61578;52.002;5.468;2023-03-03T00:37:31;102463.47;;;3.91;78.66
73341;BME280;61578;52.002;5.468;2023-03-03T00:38:16;102461.75;;;3.88;78.40
73341;BME280;61578;52.002;5.468;2023-03-03T00:38:48;102459.97;;;3.90;78.38
73341;BME280;61578;52.002;5.468;2023-03-03T00:41:29;102464.44;;;3.84;78.44
73341;BME280;61578;52.002;5.468;2023-03-03T00:42:00;102448.78;;;3.75;78.42
73341;BME280;61578;52.002;5.468;2023-03-03T00:42:34;102463.59;;;3.80;78.46
73341;BME280;61578;52.002;5.468;2023-03-03T00:43:18;102471.44;;;3.83;78.43
73341;BME280;61578;52.002;5.468;2023-03-03T00:43:51;102460.94;;;3.82;78.45
73341;BME280;61578;52.002;5.468;2023-03-03T00:44:43;102472.31;;;3.84;78.51
73341;BME280;61578;52.002;5.468;2023-03-03T00:46:02;102465.31;;;3.83;78.72
73341;BME280;61578;52.002;5.468;2023-03-03T00:46:35;102465.31;;;3.84;78.54
73341;BME280;61578;52.002;5.468;2023-03-03T00:47:29;102465.34;;;3.80;78.61
73341;BME280;61578;52.002;5.468;2023-03-03T00:48:39;102465.34;;;3.80;78.99
73341;BME280;61578;52.002;5.468;2023-03-03T00:49:23;102468.84;;;3.79;78.91
73341;BME280;61578;52.002;5.468;2023-03-03T00:50:39;102466.19;;;3.85;78.96
73341;BME280;61578;52.002;5.468;2023-03-03T00:51:53;102467.94;;;3.84;78.72
73341;BME280;61578;52.002;5.468;2023-03-03T00:52:26;102467.94;;;3.86;78.69
73341;BME280;61578;52.002;5.468;2023-03-03T00:53:00;102465.25;;;3.87;78.71
73341;BME280;61578;52.002;5.468;2023-03-03T00:53:33;102470.50;;;3.87;78.70
73341;BME280;61578;52.002;5.468;2023-03-03T00:54:03;102458.28;;;3.86;78.59
73341;BME280;61578;52.002;5.468;2023-03-03T00:54:34;102462.69;;;3.86;78.54
73341;BME280;61578;52.002;5.468;2023-03-03T00:55:06;102465.25;;;3.89;78.48
73341;BME280;61578;52.002;5.468;2023-03-03T00:55:37;102463.50;;;3.89;78.64
73341;BME280;61578;52.002;5.468;2023-03-03T00:56:09;102465.25;;;3.90;78.81
73341;BME280;61578;52.002;5.468;2023-03-03T00:56:40;102440.84;;;3.79;78.66
73341;BME280;61578;52.002;5.468;2023-03-03T00:57:11;102466.97;;;3.91;78.56
73341;BME280;61578;52.002;5.468;2023-03-03T00:57:42;102452.97;;;3.91;78.37
73341;BME280;61578;52.002;5.468;2023-03-03T00:58:13;102459.13;;;3.87;78.31
73341;BME280;61578;52.002;5.468;2023-03-03T00:58:44;102457.38;;;3.89;78.60
73341;BME280;61578;52.002;5.468;2023-03-03T00:59:17;102453.88;;;3.88;78.33
73341;BME280;61578;52.002;5.468;2023-03-03T00:59:47;102464.38;;;3.88;78.37
73341;BME280;61578;52.002;5.468;2023-03-03T01:00:19;102464.38;;;3.90;78.57
73341;BME280;61578;52.002;5.468;2023-03-03T01:00:53;102459.97;;;3.90;78.56
73341;BME280;61578;52.002;5.468;2023-03-03T01:01:25;102460.84;;;3.94;78.62
73341;BME280;61578;52.002;5.468;2023-03-03T01:01:56;102458.22;;;3.92;78.61
73341;BME280;61578;52.002;5.468;2023-03-03T01:02:27;102463.47;;;3.92;78.46
73341;BME280;61578;52.002;5.468;2023-03-03T01:03:02;102446.91;;;3.84;78.67
73341;BME280;61578;52.002;5.468;2023-03-03T01:03:35;102455.56;;;3.94;78.54
73341;BME280;61578;52.002;5.468;2023-03-03T01:04:06;102461.75;;;3.90;78.66
73341;BME280;61578;52.002;5.468;2023-03-03T01:04:38;102425.13;;;3.75;78.76
73341;BME280;61578;52.002;5.468;2023-03-03T01:05:15;102455.59;;;3.92;78.58
73341;BME280;61578;52.002;5.468;2023-03-03T01:05:48;102458.19;;;3.94;78.45
73341;BME280;61578;52.002;5.468;2023-03-03T01:06:19;102462.56;;;3.95;78.24
73341;BME280;61578;52.002;5.468;2023-03-03T01:06:49;102454.69;;;3.93;78.46
73341;BME280;61578;52.002;5.468;2023-03-03T01:07:21;102460.84;;;3.91;78.35
73341;BME280;61578;52.002;5.468;2023-03-03T01:07:52;102459.09;;;3.90;78.31
73341;BME280;61578;52.002;5.468;2023-03-03T01:08:22;102457.41;;;3.86;78.59
73341;BME280;61578;52.002;5.468;2023-03-03T01:08:53;102455.69;;;3.85;78.63
73341;BME280;61578;52.002;5.468;2023-03-03T01:09:26;102462.69;;;3.86;78.79
73341;BME280;61578;52.002;5.468;2023-03-03T01:09:57;102457.38;;;3.87;78.79
73341;BME280;61578;52.002;5.468;2023-03-03T01:10:30;102452.16;;;3.86;78.50
73341;BME280;61578;52.002;5.468;2023-03-03T01:11:24;102462.63;;;3.89;78.50
73341;BME280;61578;52.002;5.468;2023-03-03T01:11:58;102465.25;;;3.89;78.73
73341;BME280;61578;52.002;5.468;2023-03-03T01:12:29;102465.22;;;3.92;78.63
73341;BME280;61578;52.002;5.468;2023-03-03T01:13:00;102467.88;;;3.89;78.35
73341;BME280;61578;52.002;5.468;2023-03-03T01:13:33;102445.19;;;3.82;78.56
73341;BME280;61578;52.002;5.468;2023-03-03T01:14:07;102463.47;;;3.92;78.32
73341;BME280;61578;52.002;5.468;2023-03-03T01:14:39;102459.97;;;3.93;78.45
73341;BME280;61578;52.002;5.468;2023-03-03T01:15:12;102466.97;;;3.93;78.60
73341;BME280;61578;52.002;5.468;2023-03-03T01:15:44;102472.25;;;3.91;78.60
73341;BME280;61578;52.002;5.468;2023-03-03T01:16:15;102466.19;;;3.86;78.53
73341;BME280;61578;52.002;5.468;2023-03-03T01:16:46;102468.75;;;3.89;78.41
73341;BME280;61578;52.002;5.468;2023-03-03T01:17:17;102469.63;;;3.88;78.41
73341;BME280;61578;52.002;5.468;2023-03-03T01:17:48;102460.94;;;3.85;78.59
73341;BME280;61578;52.002;5.468;2023-03-03T01:18:19;102464.44;;;3.84;78.63
73341;BME280;61578;52.002;5.468;2023-03-03T01:18:50;102472.34;;;3.82;78.47
73341;BME280;61578;52.002;5.468;2023-03-03T01:19:21;102469.72;;;3.79;78.66
73341;BME280;61578;52.002;5.468;2023-03-03T01:19:51;102474.09;;;3.80;78.62
73341;BME280;61578;52.002;5.468;2023-03-03T01:20:22;102445.28;;;3.73;78.62
73341;BME280;61578;52.002;5.468;2023-03-03T01:20:53;102473.19;;;3.84;78.82
73341;BME280;61578;52.002;5.468;2023-03-03T01:21:23;102463.59;;;3.80;78.81
73341;BME280;61578;52.002;5.468;2023-03-03T01:21:54;102470.59;;;3.81;78.96
73341;BME280;61578;52.002;5.468;2023-03-03T01:22:25;102438.41;;;3.61;78.91
73341;BME280;61578;52.002;5.468;2023-03-03T01:22:55;102461.81;;;3.84;78.62
73341;BME280;61578;52.002;5.468;2023-03-03T01:23:27;102464.44;;;3.84;78.66
73341;BME280;61578;52.002;5.468;2023-03-03T01:23:58;102465.25;;;3.87;78.44
73341;BME280;61578;52.002;5.468;2023-03-03T01:24:29;102469.59;;;3.91;78.61
73341;BME280;61578;52.002;5.468;2023-03-03T01:24:59;102472.25;;;3.91;78.55
73341;BME280;61578;52.002;5.468;2023-03-03T01:25:32;102479.22;;;3.92;78.15
73341;BME280;61578;52.002;5.468;2023-03-03T01:26:04;102469.59;;;3.91;78.14
73341;BME280;61578;52.002;5.468;2023-03-03T01:26:35;102474.84;;;3.93;78.48
73341;BME280;61578;52.002;5.468;2023-03-03T01:27:06;102478.34;;;3.93;78.42
73341;BME280;61578;52.002;5.468;2023-03-03T01:27:37;102469.59;;;3.91;78.30
73341;BME280;61578;52.002;5.468;2023-03-03T01:28:08;102477.47;;;3.96;78.43
73341;BME280;61578;52.002;5.468;2023-03-03T01:28:40;102470.41;;;3.98;78.14
73341;BME280;61578;52.002;5.468;2023-03-03T01:29:10;102471.31;;;3.97;78.31
73341;BME280;61578;52.002;5.468;2023-03-03T01:29:41;102472.19;;;3.96;78.15
73341;BME280;61578;52.002;5.468;2023-03-03T01:30:12;102472.16;;;3.97;78.02
73341;BME280;61578;52.002;5.468;2023-03-03T01:30:43;102470.38;;;3.99;78.19
73341;BME280;61578;52.002;5.468;2023-03-03T01:31:14;102473.91;;;4.00;78.11
73341;BME280;61578;52.002;5.468;2023-03-03T01:31:44;102473.06;;;3.96;78.05
73341;BME280;61578;52.002;5.468;2023-03-03T01:32:15;102478.28;;;3.99;78.06
73341;BME280;61578;52.002;5.468;2023-03-03T01:32:46;102474.78;;;3.99;77.74
73341;BME280;61578;52.002;5.468;2023-03-03T01:33:17;102458.31;;;3.85;77.60
73341;BME280;61578;52.002;5.468;2023-03-03T01:33:47;102475.72;;;3.93;78.01
73341;BME280;61578;52.002;5.468;2023-03-03T01:34:18;102480.09;;;3.93;77.55
73341;BME280;61578;52.002;5.468;2023-03-03T01:34:49;102472.25;;;3.88;77.91
73341;BME280;61578;52.002;5.468;2023-03-03T01:35:20;102479.25;;;3.89;78.19
73341;BME280;61578;52.002;5.468;2023-03-03T01:35:51;102482.75;;;3.88;78.06
73341;BME280;61578;52.002;5.468;2023-03-03T01:36:24;102475.81;;;3.84;77.92
73341;BME280;61578;52.002;5.468;2023-03-03T01:36:55;102481.88;;;3.89;78.06
73341;BME280;61578;52.002;5.468;2023-03-03T01:37:26;102479.31;;;3.85;77.87
73341;BME280;61578;52.002;5.468;2023-03-03T01:37:57;102458.41;;;3.73;77.81
73341;BME280;61578;52.002;5.468;2023-03-03T01:38:28;102483.72;;;3.84;77.99
73341;BME280;61578;52.002;5.468;2023-03-03T01:38:59;102470.56;;;3.84;78.14
73341;BME280;61578;52.002;5.468;2023-03-03T01:39:30;102477.56;;;3.85;77.80
73341;BME280;61578;52.002;5.468;2023-03-03T01:40:04;102479.34;;;3.83;77.93
73341;BME280;61578;52.002;5.468;2023-03-03T01:40:41;102480.22;;;3.81;77.67
73341;BME280;61578;52.002;5.468;2023-03-03T01:41:13;102473.25;;;3.77;77.67
73341;BME280;61578;52.002;5.468;2023-03-03T01:41:43;102479.38;;;3.77;77.79
73341;BME280;61578;52.002;5.468;2023-03-03T01:42:14;102478.47;;;3.81;78.09
73341;BME280;61578;52.002;5.468;2023-03-03T01:42:45;102478.47;;;3.83;78.03
73341;BME280;61578;52.002;5.468;2023-03-03T01:43:16;102474.06;;;3.83;77.60
73341;BME280;61578;52.002;5.468;2023-03-03T01:43:48;102481.97;;;3.82;77.55
73341;BME280;61578;52.002;5.468;2023-03-03T01:44:19;102483.72;;;3.83;77.70
73341;BME280;61578;52.002;5.468;2023-03-03T01:45:10;102473.22;;;3.80;77.86
73341;BME280;61578;52.002;5.468;2023-03-03T01:47:04;102477.59;;;3.79;78.25
73341;BME280;61578;52.002;5.468;2023-03-03T01:48:45;102474.09;;;3.79;78.01
73341;BME280;61578;52.002;5.468;2023-03-03T01:49:22;102482.84;;;3.82;77.65
73341;BME280;61578;52.002;5.468;2023-03-03T01:50:05;102488.97;;;3.84;77.73
73341;BME280;61578;52.002;5.468;2023-03-03T01:51:24;102495.97;;;3.85;77.76
73341;BME280;61578;52.002;5.468;2023-03-03T01:51:51;102484.59;;;3.83;77.65
73341;BME280;61578;52.002;5.468;2023-03-03T01:52:30;102488.94;;;3.86;77.56
73341;BME280;61578;52.002;5.468;2023-03-03T01:53:13;102485.47;;;3.82;77.67
73341;BME280;61578;52.002;5.468;2023-03-03T01:53:58;102488.09;;;3.84;77.51
73341;BME280;61578;52.002;5.468;2023-03-03T01:54:41;102489.81;;;3.86;77.61
73341;BME280;61578;52.002;5.468;2023-03-03T01:55:22;102488.97;;;3.84;77.43
73341;BME280;61578;52.002;5.468;2023-03-03T01:56:00;102483.72;;;3.84;77.76
73341;BME280;61578;52.002;5.468;2023-03-03T01:56:35;102487.22;;;3.83;77.84
73341;BME280;61578;52.002;5.468;2023-03-03T01:57:12;102488.06;;;3.85;77.56
73341;BME280;61578;52.002;5.468;2023-03-03T01:57:55;102483.69;;;3.86;77.44
73341;BME280;61578;52.002;5.468;2023-03-03T01:58:36;102483.63;;;3.90;77.31
73341;BME280;61578;52.002;5.468;2023-03-03T01:59:20;102490.63;;;3.91;77.54
73341;BME280;61578;52.002;5.468;2023-03-03T01:59:57;102487.13;;;3.92;77.48
73341;BME280;61578;52.002;5.468;2023-03-03T02:00:35;102480.13;;;3.91;77.67
73341;BME280;61578;52.002;5.468;2023-03-03T02:01:13;102483.63;;;3.89;77.67
73341;BME280;61578;52.002;5.468;2023-03-03T02:01:48;102482.75;;;3.88;77.80
73341;BME280;61578;52.002;5.468;2023-03-03T02:02:20;102478.38;;;3.89;77.58
73341;BME280;61578;52.002;5.468;2023-03-03T02:02:53;102481.03;;;3.87;77.49
73341;BME280;61578;52.002;5.468;2023-03-03T02:03:25;102482.75;;;3.88;77.42
73341;BME280;61578;52.002;5.468;2023-03-03T02:03:56;102485.44;;;3.85;77.72
73341;BME280;61578;52.002;5.468;2023-03-03T02:04:28;102485.44;;;3.85;77.48
73341;BME280;61578;52.002;5.468;2023-03-03T02:04:59;102487.22;;;3.85;77.94
73341;BME280;61578;52.002;5.468;2023-03-03T02:05:31;102488.91;;;3.87;78.12
73341;BME280;61578;52.002;5.468;2023-03-03T02:06:08;102489.75;;;3.92;77.79
73341;BME280;61578;52.002;5.468;2023-03-03T02:06:48;102483.69;;;3.86;77.49
73341;BME280;61578;52.002;5.468;2023-03-03T02:07:26;102481.94;;;3.85;77.64
73341;BME280;61578;52.002;5.468;2023-03-03T02:08:00;102494.19;;;3.86;77.99
73341;BME280;61578;52.002;5.468;2023-03-03T02:09:06;102488.09;;;3.82;77.55
73341;BME280;61578;52.002;5.468;2023-03-03T02:09:58;102480.16;;;3.87;77.99
73341;BME280;61578;52.002;5.468;2023-03-03T02:10:46;102486.31;;;3.86;77.62
73341;BME280;61578;52.002;5.468;2023-03-03T02:11:20;102482.75;;;3.88;77.97
73341;BME280;61578;52.002;5.468;2023-03-03T02:11:56;102490.63;;;3.91;77.76
73341;BME280;61578;52.002;5.468;2023-03-03T02:12:37;102488.00;;;3.91;77.80
73341;BME280;61578;52.002;5.468;2023-03-03T02:13:18;102486.25;;;3.92;77.50
73341;BME280;61578;52.002;5.468;2023-03-03T02:13:48;102488.91;;;3.89;77.65
73341;BME280;61578;52.002;5.468;2023-03-03T02:14:19;102485.38;;;3.90;77.74
73341;BME280;61578;52.002;5.468;2023-03-03T02:14:50;102485.41;;;3.87;77.44
73341;BME280;61578;52.002;5.468;2023-03-03T02:15:58;102478.47;;;3.83;77.93
73341;BME280;61578;52.002;5.468;2023-03-03T02:16:29;102477.59;;;3.79;77.69
73341;BME280;61578;52.002;5.468;2023-03-03T02:17:00;102493.34;;;3.82;77.99
73341;BME280;61578;52.002;5.468;2023-03-03T02:17:31;102481.97;;;3.83;77.54
73341;BME280;61578;52.002;5.468;2023-03-03T02:18:08;102484.59;;;3.82;77.55
73341;BME280;61578;52.002;5.468;2023-03-03T02:18:42;102481.94;;;3.85;77.33
73341;BME280;61578;52.002;5.468;2023-03-03T02:20:41;102495.97;;;3.85;77.52
73341;BME280;61578;52.002;5.468;2023-03-03T02:21:22;102480.25;;;3.78;77.76
73341;BME280;61578;52.002;5.468;2023-03-03T02:21:58;102482.03;;;3.76;77.40
73341;BME280;61578;52.002;5.468;2023-03-03T02:22:43;102485.50;;;3.78;77.74
73341;BME280;61578;52.002;5.468;2023-03-03T02:25:04;102486.34;;;3.81;77.34
73341;BME280;61578;52.002;5.468;2023-03-03T02:26:27;102486.31;;;3.86;77.57
73341;BME280;61578;52.002;5.468;2023-03-03T02:26:59;102490.63;;;3.90;77.66
73341;BME280;61578;52.002;5.468;2023-03-03T02:27:32;102481.00;;;3.89;77.21
73341;BME280;61578;52.002;5.468;2023-03-03T02:28:03;102480.13;;;3.90;77.12
73341;BME280;61578;52.002;5.468;2023-03-03T02:28:36;102489.81;;;3.86;77.13
73341;BME280;61578;52.002;5.468;2023-03-03T02:29:09;102486.34;;;3.81;77.24
73341;BME280;61578;52.002;5.468;2023-03-03T02:29:40;102483.75;;;3.77;77.03
73341;BME280;61578;52.002;5.468;2023-03-03T02:30:16;102480.31;;;3.73;77.27
73341;BME280;61578;52.002;5.468;2023-03-03T02:30:54;102494.25;;;3.80;77.01
73341;BME280;61578;52.002;5.468;2023-03-03T02:31:29;102491.63;;;3.78;76.89
73341;BME280;61578;52.002;5.468;2023-03-03T02:32:00;102480.22;;;3.79;77.12
73341;BME280;61578;52.002;5.468;2023-03-03T02:32:31;102488.13;;;3.79;77.48
73341;BME280;61578;52.002;5.468;2023-03-03T02:33:02;102482.91;;;3.76;77.15
73341;BME280;61578;52.002;5.468;2023-03-03T02:33:33;102482.84;;;3.82;77.13
73341;BME280;61578;52.002;5.468;2023-03-03T02:34:04;102480.22;;;3.82;77.01
73341;BME280;61578;52.002;5.468;2023-03-03T02:34:50;102474.06;;;3.83;76.81
73341;BME280;61578;52.002;5.468;2023-03-03T02:35:26;102487.19;;;3.86;76.73
73341;BME280;61578;52.002;5.468;2023-03-03T02:35:58;102485.47;;;3.84;77.04
73341;BME280;61578;52.002;5.468;2023-03-03T02:36:35;102478.44;;;3.84;76.89
73341;BME280;61578;52.002;5.468;2023-03-03T02:37:08;102487.22;;;3.83;76.98
73341;BME280;61578;52.002;5.468;2023-03-03T02:37:40;102484.56;;;3.86;76.91
73341;BME280;61578;52.002;5.468;2023-03-03T02:39:24;102482.84;;;3.84;77.06
73341;BME280;61578;52.002;5.468;2023-03-03T02:39:56;102459.31;;;3.72;76.79
73341;BME280;61578;52.002;5.468;2023-03-03T02:40:32;102481.97;;;3.82;77.22
73341;BME280;61578;52.002;5.468;2023-03-03T02:42:32;102475.88;;;3.78;77.02
73341;BME280;61578;52.002;5.468;2023-03-03T02:43:05;102481.94;;;3.86;77.01
73341;BME280;61578;52.002;5.468;2023-03-03T02:44:34;102480.19;;;3.85;77.01
73341;BME280;61578;52.002;5.468;2023-03-03T02:45:06;102490.66;;;3.88;76.66
73341;BME280;61578;52.002;5.468;2023-03-03T02:45:46;102488.00;;;3.90;77.06
73341;BME280;61578;52.002;5.468;2023-03-03T02:46:16;102478.38;;;3.89;77.27
73341;BME280;61578;52.002;5.468;2023-03-03T02:46:50;102481.00;;;3.90;76.83
73341;BME280;61578;52.002;5.468;2023-03-03T02:47:22;102485.34;;;3.94;76.79
73341;BME280;61578;52.002;5.468;2023-03-03T02:47:53;102490.59;;;3.94;77.03
73341;BME280;61578;52.002;5.468;2023-03-03T02:48:23;102490.59;;;3.96;77.03
73341;BME280;61578;52.002;5.468;2023-03-03T02:48:54;102493.16;;;3.99;77.04
73341;BME280;61578;52.002;5.468;2023-03-03T02:49:30;102478.38;;;3.90;76.80
73341;BME280;61578;52.002;5.468;2023-03-03T02:50:03;102493.19;;;3.97;76.64
73341;BME280;61578;52.002;5.468;2023-03-03T02:50:34;102494.94;;;3.98;76.86
73341;BME280;61578;52.002;5.468;2023-03-03T02:51:05;102486.16;;;3.98;76.75
73341;BME280;61578;52.002;5.468;2023-03-03T02:51:36;102484.41;;;3.98;76.79
73341;BME280;61578;52.002;5.468;2023-03-03T02:52:09;102481.78;;;3.98;77.16
73341;BME280;61578;52.002;5.468;2023-03-03T02:52:41;102484.47;;;3.97;76.89
73341;BME280;61578;52.002;5.468;2023-03-03T02:53:12;102490.53;;;3.99;76.58
73341;BME280;61578;52.002;5.468;2023-03-03T02:53:43;102481.84;;;3.94;76.71
73341;BME280;61578;52.002;5.468;2023-03-03T02:54:16;102481.88;;;3.92;77.01
73341;BME280;61578;52.002;5.468;2023-03-03T02:54:48;102481.84;;;3.97;77.05
73341;BME280;61578;52.002;5.468;2023-03-03T02:55:18;102482.72;;;3.96;76.90
73341;BME280;61578;52.002;5.468;2023-03-03T02:55:49;102478.34;;;3.96;76.72
73341;BME280;61578;52.002;5.468;2023-03-03T02:56:20;102480.97;;;3.96;76.76
73341;BME280;61578;52.002;5.468;2023-03-03T02:56:51;102473.97;;;3.94;76.65
73341;BME280;61578;52.002;5.468;2023-03-03T02:57:22;102483.59;;;3.96;77.07
73341;BME280;61578;52.002;5.468;2023-03-03T02:57:53;102482.66;;;3.97;76.80
73341;BME280;61578;52.002;5.468;2023-03-03T02:58:23;102480.97;;;3.93;76.55
73341;BME280;61578;52.002;5.468;2023-03-03T02:58:55;102480.97;;;3.93;76.19
73341;BME280;61578;52.002;5.468;2023-03-03T02:59:26;102479.31;;;3.85;76.73
73341;BME280;61578;52.002;5.468;2023-03-03T02:59:57;102490.72;;;3.82;76.56
73341;BME280;61578;52.002;5.468;2023-03-03T03:00:27;102472.34;;;3.82;76.88
73341;BME280;61578;52.002;5.468;2023-03-03T03:00:58;102480.22;;;3.84;77.12
73341;BME280;61578;52.002;5.468;2023-03-03T03:01:28;102479.31;;;3.86;76.61
73341;BME280;61578;52.002;5.468;2023-03-03T03:02:01;102484.59;;;3.83;76.69
73341;BME280;61578;52.002;5.468;2023-03-03T03:02:32;102479.31;;;3.86;76.64
73341;BME280;61578;52.002;5.468;2023-03-03T03:03:03;102463.69;;;3.71;76.73
73341;BME280;61578;52.002;5.468;2023-03-03T03:03:33;102480.22;;;3.82;76.62
73341;BME280;61578;52.002;5.468;2023-03-03T03:04:16;102481.94;;;3.85;76.98
73341;BME280;61578;52.002;5.468;2023-03-03T03:04:51;102482.81;;;3.85;76.50
73341;BME280;61578;52.002;5.468;2023-03-03T03:05:22;102484.59;;;3.83;76.74
73341;BME280;61578;52.002;5.468;2023-03-03T03:05:53;102479.34;;;3.82;76.69
73341;BME280;61578;52.002;5.468;2023-03-03T03:06:24;102478.47;;;3.83;77.05
73341;BME280;61578;52.002;5.468;2023-03-03T03:06:55;102484.59;;;3.83;76.37
73341;BME280;61578;52.002;5.468;2023-03-03T03:07:25;102476.72;;;3.82;76.96
73341;BME280;61578;52.002;5.468;2023-03-03T03:07:56;102481.06;;;3.84;76.82
73341;BME280;61578;52.002;5.468;2023-03-03T03:08:27;102483.75;;;3.78;76.89
73341;BME280;61578;52.002;5.468;2023-03-03T03:08:58;102480.31;;;3.72;76.75
73341;BME280;61578;52.002;5.468;2023-03-03T03:09:29;102485.53;;;3.76;77.05
73341;BME280;61578;52.002;5.468;2023-03-03T03:10:00;102483.75;;;3.77;76.94
73341;BME280;61578;52.002;5.468;2023-03-03T03:10:31;102481.97;;;3.82;77.06
73341;BME280;61578;52.002;5.468;2023-03-03T03:11:03;102478.47;;;3.83;76.84
73341;BME280;61578;52.002;5.468;2023-03-03T03:11:35;102487.22;;;3.85;76.52
73341;BME280;61578;52.002;5.468;2023-03-03T03:12:07;102488.91;;;3.87;76.60
73341;BME280;61578;52.002;5.468;2023-03-03T03:12:38;102483.66;;;3.87;76.69
73341;BME280;61578;52.002;5.468;2023-03-03T03:13:08;102487.22;;;3.85;76.50
73341;BME280;61578;52.002;5.468;2023-03-03T03:13:39;102491.53;;;3.89;76.46
73341;BME280;61578;52.002;5.468;2023-03-03T03:14:12;102491.50;;;3.90;76.89
73341;BME280;61578;52.002;5.468;2023-03-03T03:14:43;102490.66;;;3.88;76.66
73341;BME280;61578;52.002;5.468;2023-03-03T03:15:14;102484.50;;;3.89;76.76
73341;BME280;61578;52.002;5.468;2023-03-03T03:15:45;102474.09;;;3.80;76.59
73341;BME280;61578;52.002;5.468;2023-03-03T03:16:16;102479.34;;;3.82;76.96
73341;BME280;61578;52.002;5.468;2023-03-03T03:16:47;102487.13;;;3.89;76.39
73341;BME280;61578;52.002;5.468;2023-03-03T03:17:17;102485.38;;;3.90;76.68
73341;BME280;61578;52.002;5.468;2023-03-03T03:17:48;102490.63;;;3.91;76.61
73341;BME280;61578;52.002;5.468;2023-03-03T03:18:19;102492.38;;;3.92;76.80
73341;BME280;61578;52.002;5.468;2023-03-03T03:18:50;102487.09;;;3.94;76.41
73341;BME280;61578;52.002;5.468;2023-03-03T03:19:21;102493.25;;;3.94;76.72
73341;BME280;61578;52.002;5.468;2023-03-03T03:19:51;102492.34;;;3.95;76.92
73341;BME280;61578;52.002;5.468;2023-03-03T03:20:22;102489.72;;;3.95;76.98
73341;BME280;61578;52.002;5.468;2023-03-03T03:20:53;102481.84;;;3.95;76.52
73341;BME280;61578;52.002;5.468;2023-03-03T03:21:24;102488.84;;;3.96;76.76